Time;durP1;ratioP1;P1;durP2;ratioP2;P2;SDS_P1;SDS_P2;PMS_P1;PMS_P2;Temp;Humidity;BMP_temperature;BMP_pressure;BME280_temperature;BME280_humidity;BME280_pressure;Samples;Min_cycle;Max_cycle;Signal;HPM_P1;HPM_P2
2022/02/17 00:00:13;;;;;;;2.55;1.25;;;;;;;10.34;93.76;97940.63;5067732;28;20103;-74
2022/02/17 00:02:43;;;;;;;1.30;1.10;;;;;;;10.37;94.68;97925.81;5065150;28;20031;-74
2022/02/17 00:05:10;;;;;;;2.80;1.25;;;;;;;10.42;94.59;97931.81;5068617;28;20108;-74
2022/02/17 00:07:36;;;;;;;1.20;1.00;;;;;;;10.48;95.22;97919.84;5065649;28;20016;-73
2022/02/17 00:10:03;;;;;;;1.15;0.80;;;;;;;10.56;94.28;97915.56;5067223;28;20025;-74
2022/02/17 00:12:30;;;;;;;1.05;0.90;;;;;;;10.58;94.77;97919.50;5067104;28;20532;-74
2022/02/17 00:14:56;;;;;;;1.20;1.08;;;;;;;10.66;94.38;97893.84;5063410;28;20040;-73
2022/02/17 00:17:22;;;;;;;1.60;1.10;;;;;;;10.70;94.75;97894.00;5064260;28;20050;-74
2022/02/17 00:19:47;;;;;;;1.75;1.10;;;;;;;10.77;93.99;97907.66;5105424;22;20076;-78
2022/02/17 00:22:13;;;;;;;1.25;1.02;;;;;;;10.79;94.10;97894.78;5088264;28;20050;-78
2022/02/17 00:24:39;;;;;;;1.10;1.00;;;;;;;10.84;94.13;97897.28;5085843;28;20035;-78
2022/02/17 00:27:05;;;;;;;1.73;0.70;;;;;;;10.89;93.61;97889.06;5089829;28;20055;-78
2022/02/17 00:29:31;;;;;;;1.92;0.70;;;;;;;10.91;93.83;97878.81;5075107;28;20052;-78
2022/02/17 00:31:56;;;;;;;1.98;0.85;;;;;;;10.98;92.89;97868.41;5071804;28;20081;-78
2022/02/17 00:34:22;;;;;;;0.73;0.73;;;;;;;11.00;92.67;97866.19;5070087;28;20024;-78
2022/02/17 00:36:48;;;;;;;1.15;0.90;;;;;;;11.02;92.71;97869.31;5077922;28;20036;-78
2022/02/17 00:39:13;;;;;;;2.72;0.80;;;;;;;11.07;92.74;97860.31;5073350;28;20101;-78
2022/02/17 00:41:39;;;;;;;0.80;0.70;;;;;;;11.07;92.72;97874.50;5071297;28;20393;-78
2022/02/17 00:44:04;;;;;;;0.70;0.50;;;;;;;11.15;92.84;97871.03;5066647;28;20024;-78
2022/02/17 00:46:30;;;;;;;1.63;0.80;;;;;;;11.16;92.62;97872.59;5077541;28;20050;-78
2022/02/17 00:48:55;;;;;;;2.80;0.98;;;;;;;11.19;92.23;97882.66;5072569;28;20056;-78
2022/02/17 00:51:21;;;;;;;0.60;0.60;;;;;;;11.17;93.32;97884.09;5073629;28;20085;-78
2022/02/17 00:53:46;;;;;;;1.38;0.85;;;;;;;11.20;93.57;97953.13;5073901;28;20055;-79
2022/02/17 00:56:12;;;;;;;3.00;0.70;;;;;;;11.18;94.01;98027.69;5072383;28;20031;-79
2022/02/17 00:58:37;;;;;;;10.07;1.05;;;;;;;11.05;92.66;98074.22;5066332;28;20029;-79
2022/02/17 01:01:03;;;;;;;2.03;0.73;;;;;;;10.90;91.87;98070.09;5076257;28;20024;-79
2022/02/17 01:03:29;;;;;;;3.53;0.50;;;;;;;10.66;91.71;98081.28;5079019;28;20028;-79
2022/02/17 01:05:54;;;;;;;2.08;0.50;;;;;;;10.47;91.22;98115.56;5074320;28;20020;-80
2022/02/17 01:08:20;;;;;;;2.20;0.50;;;;;;;10.28;89.68;98091.75;5074586;28;20596;-79
2022/02/17 01:10:45;;;;;;;1.55;0.60;;;;;;;10.04;89.04;98091.28;5078228;28;20020;-79
2022/02/17 01:13:11;;;;;;;2.85;0.65;;;;;;;9.75;88.86;98055.16;5079783;28;20020;-79
2022/02/17 01:15:37;;;;;;;3.72;0.80;;;;;;;9.55;88.88;98018.28;5076823;28;20104;-80
2022/02/17 01:18:03;;;;;;;4.80;0.50;;;;;;;9.37;88.90;98002.16;5080946;28;20031;-80
2022/02/17 01:20:29;;;;;;;2.10;0.70;;;;;;;9.25;89.06;97996.56;5075050;28;20466;-79
2022/02/17 01:22:55;;;;;;;1.67;0.77;;;;;;;9.22;89.11;98036.47;5070063;28;20078;-79
2022/02/17 01:25:20;;;;;;;2.13;0.77;;;;;;;9.13;89.12;98020.38;5077781;28;20025;-79
2022/02/17 01:27:46;;;;;;;4.82;0.80;;;;;;;9.08;90.40;98023.97;5074595;28;20028;-80
2022/02/17 01:30:12;;;;;;;3.95;0.45;;;;;;;9.08;89.99;98025.84;5074884;28;20040;-80
2022/02/17 01:32:38;;;;;;;2.15;0.45;;;;;;;9.08;89.69;98069.38;5073296;28;20030;-79
2022/02/17 01:35:04;;;;;;;2.10;0.77;;;;;;;8.98;89.55;98080.31;5064636;28;20024;-79
2022/02/17 01:37:29;;;;;;;0.95;0.45;;;;;;;9.07;90.06;98097.19;5074347;28;20078;-79
2022/02/17 01:39:55;;;;;;;1.73;0.80;;;;;;;9.04;90.26;98153.09;5072908;28;20024;-79
2022/02/17 01:42:21;;;;;;;2.90;0.82;;;;;;;9.08;90.33;98125.47;5076359;28;20438;-79
2022/02/17 01:44:48;;;;;;;2.50;0.57;;;;;;;9.20;89.42;98094.78;5066067;28;20028;-80
2022/02/17 01:47:15;;;;;;;2.47;0.60;;;;;;;9.16;89.45;98115.97;5059394;28;20036;-80
2022/02/17 01:49:42;;;;;;;1.38;0.50;;;;;;;9.14;89.60;98074.59;5070498;28;20017;-79
2022/02/17 01:52:10;;;;;;;1.85;0.70;;;;;;;9.22;88.65;98050.63;5072766;28;20040;-79
2022/02/17 01:54:37;;;;;;;2.10;0.63;;;;;;;9.26;88.68;98064.94;5071261;28;20098;-79
2022/02/17 01:57:06;;;;;;;2.08;0.90;;;;;;;9.27;87.58;98073.75;5077419;28;20016;-79
2022/02/17 01:59:32;;;;;;;1.95;0.60;;;;;;;9.33;87.24;98073.31;5068298;28;20020;-79
2022/02/17 02:01:58;;;;;;;2.15;0.77;;;;;;;9.32;86.46;98031.66;5073253;28;20385;-79
2022/02/17 02:04:23;;;;;;;2.55;0.77;;;;;;;9.39;86.31;98007.19;5074412;28;20405;-79
2022/02/17 02:06:49;;;;;;;3.72;0.90;;;;;;;9.34;85.58;98058.88;5065927;28;20032;-79
2022/02/17 02:09:16;;;;;;;5.05;0.90;;;;;;;9.38;85.57;98064.41;5073038;28;20234;-79
2022/02/17 02:11:42;;;;;;;4.47;1.25;;;;;;;9.37;85.17;98055.59;5068534;28;20155;-79
2022/02/17 02:14:16;;;;;;;3.63;1.27;;;;;;;9.33;84.67;98041.25;5077757;28;20051;-79
2022/02/17 02:16:42;;;;;;;2.45;0.70;;;;;;;9.37;84.16;98015.50;5071302;28;20028;-79
2022/02/17 02:19:08;;;;;;;4.38;0.98;;;;;;;9.42;84.23;97998.56;5070886;28;20040;-79
2022/02/17 02:21:34;;;;;;;4.38;0.80;;;;;;;9.27;83.67;97999.72;5071987;28;20029;-79
2022/02/17 02:24:00;;;;;;;1.10;0.68;;;;;;;9.29;83.63;98021.56;5074240;28;20067;-79
2022/02/17 02:26:27;;;;;;;3.28;0.77;;;;;;;9.26;83.39;98034.75;5075395;28;20050;-79
2022/02/17 02:28:53;;;;;;;4.65;0.98;;;;;;;9.29;83.02;98052.84;5073891;28;20031;-79
2022/02/17 02:31:19;;;;;;;6.18;1.33;;;;;;;9.27;82.83;98047.03;5068986;28;20024;-79
2022/02/17 02:33:44;;;;;;;6.13;1.13;;;;;;;9.29;83.20;98047.50;5076091;28;20119;-79
2022/02/17 02:36:10;;;;;;;2.53;0.85;;;;;;;9.27;82.87;98049.69;5071302;28;20176;-79
2022/02/17 02:38:36;;;;;;;1.38;0.50;;;;;;;9.23;83.01;98035.38;5076214;28;20024;-79
2022/02/17 02:41:01;;;;;;;3.55;1.00;;;;;;;9.25;82.55;98036.66;5068581;28;20618;-79
2022/02/17 02:43:27;;;;;;;4.57;0.70;;;;;;;9.17;83.03;98041.94;5073063;28;20020;-79
2022/02/17 02:45:52;;;;;;;6.03;1.33;;;;;;;9.12;82.84;98045.50;5073281;28;20071;-79
2022/02/17 02:48:19;;;;;;;3.42;1.05;;;;;;;9.10;82.80;98053.03;5070978;28;20021;-79
2022/02/17 02:50:44;;;;;;;3.03;0.90;;;;;;;9.10;83.06;98055.72;5069009;28;20062;-79
2022/02/17 02:53:18;;;;;;;2.47;0.80;;;;;;;9.14;82.54;98043.31;5069189;28;20052;-79
2022/02/17 02:55:46;;;;;;;3.92;0.90;;;;;;;9.09;82.69;98059.47;5066658;28;20043;-79
2022/02/17 02:58:13;;;;;;;4.63;1.00;;;;;;;9.06;83.23;98062.75;5068782;28;20028;-79
2022/02/17 03:00:39;;;;;;;3.08;0.85;;;;;;;9.07;83.02;98059.00;5068183;28;20478;-78
2022/02/17 03:03:05;;;;;;;4.10;0.82;;;;;;;9.06;82.43;98060.88;5073099;28;20056;-78
2022/02/17 03:05:31;;;;;;;2.45;0.80;;;;;;;9.06;83.08;98062.75;5068057;28;20824;-78
2022/02/17 03:07:56;;;;;;;5.50;1.23;;;;;;;8.99;82.75;98057.84;5067283;28;20024;-78
2022/02/17 03:10:22;;;;;;;8.85;0.90;;;;;;;9.04;82.59;98060.41;5073445;28;20029;-78
2022/02/17 03:12:48;;;;;;;4.88;0.93;;;;;;;9.00;82.61;98037.28;5072233;28;20036;-78
2022/02/17 03:15:14;;;;;;;3.55;0.70;;;;;;;9.01;82.65;98046.88;5069827;28;20058;-78
2022/02/17 03:17:39;;;;;;;4.68;1.35;;;;;;;8.90;82.85;98037.50;5071803;28;20012;-78
2022/02/17 03:20:08;;;;;;;7.78;1.00;;;;;;;8.88;83.05;98039.69;5071143;28;20812;-79
2022/02/17 03:22:37;;;;;;;3.20;0.52;;;;;;;8.84;82.94;98049.41;5063693;28;20033;-79
2022/02/17 03:25:11;;;;;;;9.70;1.92;;;;;;;8.81;82.77;98028.66;5068146;28;20028;-78
2022/02/17 03:27:37;;;;;;;7.00;1.20;;;;;;;8.88;83.10;98039.69;5071530;28;20073;-79
2022/02/17 03:30:05;;;;;;;5.68;1.38;;;;;;;8.87;83.09;98043.44;5077862;28;20383;-78
2022/02/17 03:32:30;;;;;;;4.90;1.08;;;;;;;8.92;82.84;98028.09;5073120;28;20020;-78
2022/02/17 03:34:56;;;;;;;4.55;1.00;;;;;;;8.90;82.71;98032.94;5081628;28;20032;-78
2022/02/17 03:37:22;;;;;;;6.40;1.20;;;;;;;8.84;82.85;98033.38;5071978;28;20492;-79
2022/02/17 03:39:47;;;;;;;6.03;1.20;;;;;;;8.83;82.66;98024.59;5066269;28;20475;-78
2022/02/17 03:42:13;;;;;;;3.25;1.20;;;;;;;8.85;82.79;98030.41;5075164;28;20501;-79
2022/02/17 03:44:38;;;;;;;7.60;2.28;;;;;;;8.87;82.89;98035.44;5081504;28;20024;-79
2022/02/17 03:47:04;;;;;;;9.40;1.65;;;;;;;8.88;82.97;98039.69;5067931;28;20395;-78
2022/02/17 03:49:30;;;;;;;5.28;1.55;;;;;;;8.84;83.58;98034.16;5082022;28;20029;-78
2022/02/17 03:51:55;;;;;;;8.68;1.38;;;;;;;8.90;83.10;98040.16;5076575;28;20406;-78
2022/02/17 03:54:22;;;;;;;8.13;1.38;;;;;;;8.92;83.14;98051.34;5081917;28;20028;-79
2022/02/17 03:56:47;;;;;;;9.85;3.60;;;;;;;8.92;83.79;98056.69;5080550;28;20028;-79
2022/02/17 03:59:13;;;;;;;7.75;2.95;;;;;;;8.81;85.21;98045.47;5068820;28;20088;-79
2022/02/17 04:01:39;;;;;;;8.55;2.92;;;;;;;8.67;85.73;98064.19;5072450;28;20026;-79
2022/02/17 04:04:07;;;;;;;9.10;2.30;;;;;;;8.62;85.84;98044.81;5066789;28;20024;-79
2022/02/17 04:06:33;;;;;;;8.27;2.35;;;;;;;8.53;85.99;98031.38;5082742;28;20036;-79
2022/02/17 04:08:58;;;;;;;6.88;1.83;;;;;;;8.45;86.12;98018.78;5066621;28;20435;-79
2022/02/17 04:11:26;;;;;;;8.68;2.13;;;;;;;8.46;85.87;98017.69;5079597;28;20020;-78
2022/02/17 04:13:52;;;;;;;9.57;1.70;;;;;;;8.46;85.55;98015.78;5080062;28;20027;-79
2022/02/17 04:16:18;;;;;;;6.35;1.45;;;;;;;8.46;85.47;98023.81;5072895;28;20054;-79
2022/02/17 04:18:45;;;;;;;9.40;2.38;;;;;;;8.45;85.27;98035.56;5072191;28;20431;-79
2022/02/17 04:21:12;;;;;;;10.18;1.67;;;;;;;8.41;85.48;98031.09;5070751;28;20634;-78
2022/02/17 04:23:42;;;;;;;8.20;1.95;;;;;;;8.44;84.23;98039.31;5069212;28;20029;-79
2022/02/17 04:26:08;;;;;;;8.23;1.73;;;;;;;8.40;84.29;98037.53;5063296;28;20028;-79
2022/02/17 04:28:34;;;;;;;8.70;1.45;;;;;;;8.46;83.80;98063.03;5080788;28;20043;-79
2022/02/17 04:31:00;;;;;;;9.05;1.58;;;;;;;8.38;83.49;98091.19;5074156;28;20029;-79
2022/02/17 04:33:26;;;;;;;5.68;1.60;;;;;;;8.44;82.68;98098.03;5066581;28;20039;-79
2022/02/17 04:35:51;;;;;;;6.13;1.70;;;;;;;8.44;82.45;98119.38;5075939;28;20070;-79
2022/02/17 04:38:17;;;;;;;6.25;1.10;;;;;;;8.44;82.00;98123.91;5070063;28;20020;-79
2022/02/17 04:43:26;;;;;;;8.27;1.48;;;;;;;8.33;82.49;98109.16;5081355;28;20090;-80
2022/02/17 04:45:52;;;;;;;5.85;1.10;;;;;;;8.33;81.79;98093.16;5077757;28;20024;-79
2022/02/17 04:48:17;;;;;;;4.82;0.80;;;;;;;8.29;81.27;98049.50;5071896;28;20027;-78
2022/02/17 04:50:42;;;;;;;4.65;1.10;;;;;;;8.24;80.80;98077.03;5081609;28;20033;-78
2022/02/17 04:53:08;;;;;;;4.47;1.20;;;;;;;8.11;79.88;98091.97;5075668;28;20531;-79
2022/02/17 04:55:33;;;;;;;4.43;0.95;;;;;;;8.18;80.33;98099.56;5074240;28;20034;-78
2022/02/17 04:57:59;;;;;;;6.72;1.20;;;;;;;8.15;79.73;98098.28;5073147;28;20025;-79
2022/02/17 05:00:24;;;;;;;5.63;1.00;;;;;;;8.09;79.91;98107.50;5073374;28;20397;-78
2022/02/17 05:02:50;;;;;;;5.25;0.98;;;;;;;8.04;79.74;98090.78;5065162;28;20016;-78
2022/02/17 05:05:15;;;;;;;5.15;1.10;;;;;;;8.04;79.59;98106.78;5068781;28;20496;-78
2022/02/17 05:07:41;;;;;;;2.95;0.90;;;;;;;7.97;79.62;98107.19;5074660;28;20020;-79
2022/02/17 05:10:07;;;;;;;3.58;1.10;;;;;;;7.90;79.93;98106.78;5070256;28;20035;-78
2022/02/17 05:12:32;;;;;;;1.20;0.75;;;;;;;7.76;79.96;98119.28;5076040;28;20032;-79
2022/02/17 05:14:58;;;;;;;1.63;0.80;;;;;;;7.84;80.06;98115.94;5074686;28;20111;-78
2022/02/17 05:17:23;;;;;;;1.70;0.70;;;;;;;7.80;79.44;98113.06;5067408;28;20024;-78
2022/02/17 05:19:49;;;;;;;2.33;0.68;;;;;;;7.73;79.62;98126.00;5072321;28;20107;-78
2022/02/17 05:22:14;;;;;;;1.70;0.57;;;;;;;7.70;79.70;98112.44;5070992;28;20027;-78
2022/02/17 05:24:40;;;;;;;3.83;0.65;;;;;;;7.68;79.44;98125.28;5070497;28;20024;-78
2022/02/17 05:27:05;;;;;;;5.05;0.90;;;;;;;7.54;80.12;98126.06;5068090;28;20024;-78
2022/02/17 05:29:31;;;;;;;6.47;0.95;;;;;;;7.51;80.01;98121.28;5073005;28;20024;-78
2022/02/17 05:31:56;;;;;;;3.83;0.90;;;;;;;7.49;79.57;98107.47;5068722;28;20025;-78
2022/02/17 05:34:22;;;;;;;6.63;1.00;;;;;;;7.53;79.43;98115.66;5067893;28;20127;-78
2022/02/17 05:36:47;;;;;;;6.00;1.00;;;;;;;7.50;79.62;98137.56;5069793;28;20017;-78
2022/02/17 05:39:13;;;;;;;3.97;0.73;;;;;;;7.37;79.48;98136.47;5070680;28;20034;-78
2022/02/17 05:41:39;;;;;;;3.17;1.10;;;;;;;7.36;79.67;98134.88;5071683;28;20020;-78
2022/02/17 05:44:05;;;;;;;2.30;0.73;;;;;;;7.31;78.98;98148.25;5067355;28;21658;-78
2022/02/17 05:46:31;;;;;;;7.72;0.93;;;;;;;7.29;79.59;98145.09;5080100;28;20020;-78
2022/02/17 05:48:56;;;;;;;6.35;1.10;;;;;;;7.23;79.00;98151.56;5064858;28;20611;-78
2022/02/17 05:51:22;;;;;;;6.07;1.13;;;;;;;7.26;79.02;98146.47;5081107;28;20560;-78
2022/02/17 05:53:48;;;;;;;3.17;1.20;;;;;;;7.22;78.89;98144.66;5066376;28;20016;-78
2022/02/17 05:56:14;;;;;;;2.00;0.90;;;;;;;7.27;78.55;98142.72;5076403;28;20027;-78
2022/02/17 05:58:39;;;;;;;9.15;1.67;;;;;;;7.28;78.15;98165.59;5063272;28;20080;-78
2022/02/17 06:01:05;;;;;;;4.95;1.20;;;;;;;7.25;77.88;98138.75;5070833;28;20029;-78
2022/02/17 06:03:31;;;;;;;8.18;1.33;;;;;;;7.32;77.73;98149.81;5071657;28;20020;-79
2022/02/17 06:05:57;;;;;;;8.13;1.42;;;;;;;7.17;76.94;98155.38;5077265;28;20074;-78
2022/02/17 06:08:23;;;;;;;9.05;1.30;;;;;;;7.21;77.57;98154.53;5068275;28;20501;-79
2022/02/17 06:10:50;;;;;;;7.43;1.55;;;;;;;7.20;76.95;98162.81;5071474;28;20074;-78
2022/02/17 06:13:15;;;;;;;9.95;1.73;;;;;;;7.20;77.25;98160.16;5067142;28;20032;-79
2022/02/17 06:15:41;;;;;;;7.30;1.65;;;;;;;7.20;76.63;98157.50;5070036;28;20039;-79
2022/02/17 06:18:07;;;;;;;6.15;2.03;;;;;;;7.18;76.03;98178.25;5072932;28;20028;-77
2022/02/17 06:20:33;;;;;;;9.52;1.70;;;;;;;7.25;76.56;98160.84;5076209;28;20084;-76
2022/02/17 06:22:59;;;;;;;8.77;1.10;;;;;;;7.31;76.15;98163.44;5065830;28;20052;-76
2022/02/17 06:25:25;;;;;;;7.93;1.23;;;;;;;7.35;75.77;98175.88;5066100;28;20035;-76
2022/02/17 06:27:51;;;;;;;5.28;1.40;;;;;;;7.39;75.45;98155.59;5064998;28;20035;-76
2022/02/17 06:30:18;;;;;;;12.75;1.88;;;;;;;7.39;75.14;98166.25;5069848;28;20102;-77
2022/02/17 06:32:50;;;;;;;14.70;1.95;;;;;;;7.43;74.59;98175.25;5070974;28;20431;-76
2022/02/17 06:35:20;;;;;;;9.45;1.58;;;;;;;7.47;74.41;98178.13;5069806;28;20033;-77
2022/02/17 06:37:47;;;;;;;3.95;1.42;;;;;;;7.49;73.38;98190.06;5066993;28;20024;-76
2022/02/17 06:40:13;;;;;;;10.85;1.80;;;;;;;7.52;73.06;98178.81;5064088;28;20119;-77
2022/02/17 06:42:39;;;;;;;7.28;1.52;;;;;;;7.51;72.87;98173.78;5073311;28;20491;-77
2022/02/17 06:45:05;;;;;;;5.10;1.90;;;;;;;7.53;72.81;98172.41;5068542;28;20103;-76
2022/02/17 06:47:30;;;;;;;8.75;1.52;;;;;;;7.52;72.05;98181.47;5076966;28;20020;-76
2022/02/17 06:49:56;;;;;;;6.63;1.48;;;;;;;7.56;71.89;98182.50;5068448;28;20539;-76
2022/02/17 06:52:22;;;;;;;7.00;2.05;;;;;;;7.64;71.67;98181.03;5081983;28;20059;-76
2022/02/17 06:54:48;;;;;;;5.32;1.75;;;;;;;7.68;71.44;98170.59;5067918;28;20023;-77
2022/02/17 06:57:20;;;;;;;9.50;1.58;;;;;;;7.67;70.58;98177.00;5066241;28;20562;-76
2022/02/17 06:59:46;;;;;;;8.95;1.25;;;;;;;7.72;70.32;98188.38;5072350;28;20048;-77
2022/02/17 07:02:13;;;;;;;10.23;2.05;;;;;;;7.75;70.18;98190.47;5067531;28;20020;-76
2022/02/17 07:04:38;;;;;;;14.45;1.60;;;;;;;7.78;70.31;98189.88;5055092;28;20032;-77
2022/02/17 07:07:04;;;;;;;7.25;1.27;;;;;;;7.82;69.97;98195.41;5071158;28;20027;-76
2022/02/17 07:09:29;;;;;;;9.18;1.60;;;;;;;7.83;69.32;98189.00;5071870;28;20020;-76
2022/02/17 07:11:55;;;;;;;8.00;1.30;;;;;;;7.89;69.05;98179.81;5074594;28;20047;-76
2022/02/17 07:14:23;;;;;;;5.75;2.08;;;;;;;7.90;68.42;98189.44;5076152;28;20738;-77
2022/02/17 07:16:57;;;;;;;15.23;2.15;;;;;;;7.94;68.13;98178.97;5067036;28;20043;-76
2022/02/17 07:19:23;;;;;;;12.15;2.03;;;;;;;7.98;67.42;98183.41;5067414;28;20071;-76
2022/02/17 07:21:52;;;;;;;6.82;1.92;;;;;;;8.05;68.03;98175.81;5067624;28;20058;-76
2022/02/17 07:24:21;;;;;;;8.35;1.67;;;;;;;8.05;67.02;98183.81;5074443;28;20024;-76
2022/02/17 07:26:48;;;;;;;7.50;1.77;;;;;;;8.11;67.03;98182.66;5072261;28;20101;-77
2022/02/17 07:29:15;;;;;;;7.97;1.90;;;;;;;8.16;67.63;98185.22;5067475;28;20031;-76
2022/02/17 07:31:41;;;;;;;6.70;2.20;;;;;;;8.13;67.03;98182.34;5073403;28;20358;-76
2022/02/17 07:34:07;;;;;;;11.07;2.40;;;;;;;8.10;66.58;98185.63;5068675;28;20032;-76
2022/02/17 07:36:33;;;;;;;8.60;1.45;;;;;;;8.13;67.25;98177.03;5069631;28;20024;-76
2022/02/17 07:38:58;;;;;;;7.70;1.70;;;;;;;8.13;67.51;98185.81;5066062;28;20024;-76
2022/02/17 07:41:24;;;;;;;8.57;1.48;;;;;;;8.12;67.47;98186.91;5065413;28;20441;-76
2022/02/17 07:43:50;;;;;;;11.63;1.77;;;;;;;8.12;67.83;98164.78;5067197;28;20539;-77
2022/02/17 07:46:15;;;;;;;9.05;1.52;;;;;;;8.09;68.10;98205.38;5068784;28;20477;-76
2022/02/17 07:48:41;;;;;;;7.32;1.73;;;;;;;8.02;68.22;98194.28;5063315;28;20020;-76
2022/02/17 07:51:07;;;;;;;10.77;2.42;;;;;;;7.98;68.88;98204.75;5062442;28;20020;-76
2022/02/17 07:53:34;;;;;;;4.57;1.33;;;;;;;7.89;69.49;98182.50;5057885;28;20045;-76
2022/02/17 07:56:00;;;;;;;7.03;2.83;;;;;;;7.86;69.55;98217.72;5068878;28;20111;-76
2022/02/17 07:58:26;;;;;;;8.30;1.70;;;;;;;7.85;69.87;98208.94;5074395;28;20471;-77
2022/02/17 08:04:14;;;;;;;6.55;1.63;;;;;;;7.73;70.69;98248.59;5071625;28;20093;-79
2022/02/17 08:06:43;;;;;;;11.63;1.60;;;;;;;7.75;70.43;98245.66;5070101;28;20028;-77
2022/02/17 08:09:09;;;;;;;13.23;1.88;;;;;;;7.66;71.73;98237.50;5064238;28;20082;-77
2022/02/17 08:11:34;;;;;;;7.18;1.20;;;;;;;7.64;71.95;98268.19;5073906;28;20027;-78
2022/02/17 08:13:59;;;;;;;10.65;1.50;;;;;;;7.49;73.75;98277.97;5065804;28;21837;-77
2022/02/17 08:16:26;;;;;;;8.13;1.52;;;;;;;7.51;73.68;98273.16;5071918;28;20028;-77
2022/02/17 08:18:52;;;;;;;6.95;1.15;;;;;;;7.47;73.87;98279.34;5076186;28;20020;-77
2022/02/17 08:21:17;;;;;;;8.30;1.40;;;;;;;7.41;73.67;98267.19;5078028;28;20030;-77
2022/02/17 08:23:43;;;;;;;14.45;2.13;;;;;;;7.42;73.76;98292.75;5069612;28;20024;-78
2022/02/17 08:26:08;;;;;;;9.10;1.67;;;;;;;7.41;73.70;98281.31;5073871;28;20024;-79
2022/02/17 08:28:34;;;;;;;9.82;1.50;;;;;;;7.32;74.74;98261.69;5072591;28;20024;-78
2022/02/17 08:30:59;;;;;;;6.85;1.25;;;;;;;7.29;75.94;98334.19;5073492;28;20032;-78
2022/02/17 08:33:26;;;;;;;5.93;1.40;;;;;;;7.22;75.90;98272.50;5075226;28;20023;-77
2022/02/17 08:35:51;;;;;;;6.30;1.38;;;;;;;7.15;77.06;98288.81;5067890;28;20028;-77
2022/02/17 08:38:18;;;;;;;7.60;1.25;;;;;;;7.17;77.03;98304.50;5067436;28;20025;-77
2022/02/17 08:40:44;;;;;;;10.60;1.25;;;;;;;7.20;77.24;98295.97;5070711;28;20050;-77
2022/02/17 08:43:09;;;;;;;5.70;1.35;;;;;;;7.18;77.68;98306.91;5075582;28;20021;-77
2022/02/17 08:45:37;;;;;;;7.75;1.48;;;;;;;7.24;77.20;98305.75;5069319;28;20027;-77
2022/02/17 08:48:04;;;;;;;5.00;1.33;;;;;;;7.23;77.31;98309.50;5070855;28;21695;-76
2022/02/17 08:50:29;;;;;;;4.65;1.30;;;;;;;7.27;76.95;98321.16;5069086;28;20465;-76
2022/02/17 08:52:55;;;;;;;5.90;1.23;;;;;;;7.28;77.15;98322.75;5074895;28;20111;-77
2022/02/17 08:55:20;;;;;;;8.38;1.38;;;;;;;7.28;76.79;98314.75;5072306;28;20078;-77
2022/02/17 08:57:47;;;;;;;8.85;1.20;;;;;;;7.24;76.82;98323.59;5079187;28;20063;-76
2022/02/17 09:00:14;;;;;;;6.60;1.60;;;;;;;7.29;76.54;98352.84;5076998;28;20032;-77
2022/02/17 09:02:40;;;;;;;6.78;1.48;;;;;;;7.23;77.39;98368.09;5066561;28;20436;-77
2022/02/17 09:05:06;;;;;;;5.97;1.23;;;;;;;7.21;77.59;98361.47;5067643;28;20039;-77
2022/02/17 09:07:32;;;;;;;3.70;0.90;;;;;;;7.22;77.79;98358.53;5070332;28;20074;-77
2022/02/17 09:09:58;;;;;;;6.25;1.13;;;;;;;7.20;78.41;98367.88;5074324;28;20125;-77
2022/02/17 09:12:23;;;;;;;4.22;1.33;;;;;;;7.16;78.50;98388.13;5071229;28;20559;-76
2022/02/17 09:14:48;;;;;;;3.25;1.42;;;;;;;7.13;79.14;98394.03;5070551;28;20566;-76
2022/02/17 09:17:14;;;;;;;3.38;0.98;;;;;;;7.15;78.94;98410.50;5066833;28;20111;-77
2022/02/17 09:19:40;;;;;;;5.93;1.50;;;;;;;7.10;79.55;98422.03;5087368;28;20388;-77
2022/02/17 09:22:05;;;;;;;4.45;1.15;;;;;;;7.00;80.84;98424.78;5078966;28;20050;-77
2022/02/17 09:24:31;;;;;;;3.65;1.33;;;;;;;6.98;81.36;98427.72;5072770;28;20024;-76
2022/02/17 09:26:56;;;;;;;4.80;1.27;;;;;;;7.06;81.06;98439.63;5068115;28;20032;-76
2022/02/17 09:29:21;;;;;;;5.63;1.63;;;;;;;7.05;81.55;98445.25;5076810;28;20389;-78
2022/02/17 09:31:47;;;;;;;6.05;1.55;;;;;;;7.08;81.15;98450.81;5074502;28;20028;-76
2022/02/17 09:34:13;;;;;;;8.10;1.30;;;;;;;7.04;81.16;98465.75;5065601;28;20028;-77
2022/02/17 09:36:38;;;;;;;3.58;0.88;;;;;;;7.07;81.93;98473.19;5074578;28;20063;-76
2022/02/17 09:39:05;;;;;;;4.88;1.00;;;;;;;7.09;82.12;98481.69;5069098;28;20402;-77
2022/02/17 09:41:31;;;;;;;2.40;1.00;;;;;;;7.12;81.72;98465.13;5072012;28;20111;-77
2022/02/17 09:44:08;;;;;;;6.47;1.10;;;;;;;7.07;81.80;98491.81;5072095;28;20095;-77
2022/02/17 09:46:36;;;;;;;3.55;0.98;;;;;;;7.12;81.56;98497.09;5065684;28;20032;-76
2022/02/17 09:49:03;;;;;;;3.78;0.73;;;;;;;7.16;81.45;98481.34;5071327;28;20032;-76
2022/02/17 09:51:31;;;;;;;5.22;1.05;;;;;;;7.20;81.43;98495.72;5080743;28;20497;-77
2022/02/17 09:53:56;;;;;;;5.97;1.00;;;;;;;7.17;81.64;98501.56;5071201;28;20712;-77
2022/02/17 09:56:31;;;;;;;2.97;0.90;;;;;;;7.16;81.34;98497.31;5054243;28;20027;-77
2022/02/17 09:58:57;;;;;;;4.82;0.80;;;;;;;7.25;80.72;98485.78;5066859;28;20037;-77
2022/02/17 10:01:27;;;;;;;3.85;1.45;;;;;;;7.32;80.46;98506.75;5073411;28;20028;-77
2022/02/17 10:04:22;;;;;;;3.35;1.17;;;;;;;7.28;81.46;98505.75;5074170;28;20020;-77
2022/02/17 10:06:59;;;;;;;3.10;1.10;;;;;;;7.41;80.56;98526.41;5053398;28;20064;-76
2022/02/17 10:09:40;;;;;;;4.90;1.10;;;;;;;7.47;79.88;98530.59;5077135;28;20028;-77
2022/02/17 10:12:09;;;;;;;4.15;0.85;;;;;;;7.56;79.53;98522.78;5068957;28;20041;-77
2022/02/17 10:14:35;;;;;;;3.45;0.90;;;;;;;7.60;79.41;98549.66;5078354;28;20119;-77
2022/02/17 10:17:08;;;;;;;3.85;1.00;;;;;;;7.62;78.86;98558.97;5076201;28;20034;-77
2022/02/17 10:19:35;;;;;;;5.93;0.70;;;;;;;7.62;78.20;98555.50;5077881;28;20032;-77
2022/02/17 10:22:01;;;;;;;11.75;1.50;;;;;;;7.63;78.08;98573.09;5065857;28;20029;-77
2022/02/17 10:24:31;;;;;;;8.82;0.95;;;;;;;7.66;78.32;98572.53;5064508;28;20016;-77
2022/02/17 10:27:05;;;;;;;2.33;0.50;;;;;;;7.72;78.00;98595.38;5064850;28;20032;-77
2022/02/17 10:29:34;;;;;;;6.93;0.90;;;;;;;7.78;77.73;98599.59;5069007;28;20392;-78
2022/02/17 10:32:13;;;;;;;4.22;0.90;;;;;;;7.76;77.70;98607.09;5069460;28;20413;-77
2022/02/17 10:34:41;;;;;;;4.72;0.85;;;;;;;7.79;77.38;98612.66;5064555;28;20028;-77
2022/02/17 10:37:09;;;;;;;2.78;1.38;;;;;;;7.81;77.28;98618.50;5065513;28;20042;-77
2022/02/17 10:39:37;;;;;;;2.95;1.15;;;;;;;7.83;77.20;98634.19;5068886;28;20032;-77
2022/02/17 10:42:09;;;;;;;6.93;0.70;;;;;;;7.78;76.95;98626.25;5061313;28;20025;-78
2022/02/17 10:44:38;;;;;;;2.28;0.57;;;;;;;7.81;76.46;98641.69;5067535;28;20120;-77
2022/02/17 10:47:20;;;;;;;6.30;0.75;;;;;;;7.72;76.44;98657.50;5069448;28;20021;-78
2022/02/17 10:49:50;;;;;;;1.63;0.70;;;;;;;7.75;76.66;98656.94;5056248;28;21003;-78
2022/02/17 10:52:36;;;;;;;3.70;0.90;;;;;;;7.78;76.47;98659.03;5063774;28;20086;-78
2022/02/17 10:55:09;;;;;;;2.05;0.55;;;;;;;7.77;76.51;98672.66;5061530;28;20051;-78
2022/02/17 10:57:35;;;;;;;9.82;1.33;;;;;;;7.84;76.84;98683.78;5078183;28;20034;-78
2022/02/17 11:00:11;;;;;;;1.88;0.73;;;;;;;7.77;76.54;98685.97;5073601;28;20466;-78
2022/02/17 11:02:38;;;;;;;4.75;0.50;;;;;;;7.76;77.26;98689.72;5075653;28;20020;-78
2022/02/17 11:05:07;;;;;;;4.68;0.70;;;;;;;7.77;77.06;98700.09;5074227;28;20049;-78
2022/02/17 11:07:35;;;;;;;3.80;0.60;;;;;;;7.75;77.27;98712.13;5074355;28;20029;-78
2022/02/17 11:10:01;;;;;;;2.10;0.40;;;;;;;7.68;77.83;98728.41;5078044;28;20405;-78
2022/02/17 11:12:27;;;;;;;0.52;0.38;;;;;;;7.68;78.01;98732.94;5077673;28;20028;-78
2022/02/17 11:14:56;;;;;;;0.63;0.50;;;;;;;7.60;78.36;98739.69;5072274;28;20024;-78
2022/02/17 11:17:24;;;;;;;3.25;0.50;;;;;;;7.53;78.46;98737.31;5069220;28;20028;-77
2022/02/17 11:19:53;;;;;;;5.50;0.45;;;;;;;7.46;79.37;98744.81;5073791;28;20043;-78
2022/02/17 11:22:19;;;;;;;1.35;0.50;;;;;;;7.44;79.71;98744.31;5086430;28;20020;-78
2022/02/17 11:24:47;;;;;;;1.80;0.60;;;;;;;7.38;80.44;98781.94;5074065;28;20017;-78
2022/02/17 11:27:14;;;;;;;2.47;0.60;;;;;;;7.40;81.13;98787.78;5064396;28;20604;-78
2022/02/17 11:29:41;;;;;;;2.03;0.50;;;;;;;7.37;81.77;98781.13;5081518;28;20481;-78
2022/02/17 11:32:12;;;;;;;1.05;0.40;;;;;;;7.33;81.67;98801.38;5082886;28;20107;-78
2022/02/17 11:34:43;;;;;;;2.25;0.60;;;;;;;7.27;83.21;98813.13;5085603;28;20020;-78
2022/02/17 11:37:27;;;;;;;2.85;0.60;;;;;;;7.23;83.04;98806.75;5076395;28;20043;-78
2022/02/17 11:40:08;;;;;;;0.55;0.30;;;;;;;7.15;84.25;98834.75;5081825;28;20111;-78
2022/02/17 11:42:42;;;;;;;2.88;0.40;;;;;;;7.16;84.27;98840.88;5076130;28;20099;-78
2022/02/17 11:45:22;;;;;;;4.70;0.57;;;;;;;7.15;84.28;98850.72;5077131;28;20157;-78